Time;durP1;ratioP1;P1;durP2;ratioP2;P2;SDS_P1;SDS_P2;PMS_P1;PMS_P2;Temp;Humidity;BMP_temperature;BMP_pressure;BME280_temperature;BME280_humidity;BME280_pressure;Samples;Min_cycle;Max_cycle;Signal;HPM_P1;HPM_P2
2021/10/31 00:01:45;;;;;;;13.23;8.23;;;10.10;93.10;;;;;;5008308;28;20037;-70
2021/10/31 00:04:10;;;;;;;11.35;6.85;;;10.10;93.10;;;;;;5007406;28;20099;-71
2021/10/31 00:06:36;;;;;;;12.90;7.47;;;10.10;93.10;;;;;;5009497;28;20030;-71
2021/10/31 00:09:06;;;;;;;12.65;7.10;;;10.10;93.20;;;;;;5006261;28;20482;-70
2021/10/31 00:11:32;;;;;;;10.80;7.28;;;10.10;93.20;;;;;;5004632;28;20576;-70
2021/10/31 00:13:58;;;;;;;11.45;7.18;;;10.10;93.10;;;;;;5010209;28;20125;-70
2021/10/31 00:16:23;;;;;;;10.98;7.10;;;10.10;93.10;;;;;;5007123;28;20034;-70
2021/10/31 00:18:49;;;;;;;13.40;7.40;;;10.10;93.10;;;;;;5007472;28;20107;-70
2021/10/31 00:21:15;;;;;;;11.90;7.35;;;10.10;93.10;;;;;;5009524;28;20048;-73
2021/10/31 00:23:41;;;;;;;11.05;6.78;;;10.10;93.10;;;;;;5013921;28;20040;-70
2021/10/31 00:26:06;;;;;;;12.13;7.38;;;10.00;93.10;;;;;;5018763;28;20041;-70
2021/10/31 00:28:32;;;;;;;12.82;7.15;;;10.10;92.90;;;;;;5008193;28;20046;-70
2021/10/31 00:30:58;;;;;;;12.35;7.20;;;10.10;92.90;;;;;;5013171;28;20694;-71
2021/10/31 00:33:23;;;;;;;12.27;7.07;;;10.10;92.90;;;;;;5011144;28;20036;-70
2021/10/31 00:35:49;;;;;;;11.30;6.97;;;9.90;92.90;;;;;;5013791;28;20180;-70
2021/10/31 00:38:14;;;;;;;15.82;7.72;;;10.00;92.90;;;;;;5021607;28;20029;-70
2021/10/31 00:40:41;;;;;;;12.57;8.27;;;9.90;93.00;;;;;;5016464;28;20033;-75
2021/10/31 00:43:07;;;;;;;15.52;9.50;;;10.00;93.00;;;;;;5007521;28;20108;-72
2021/10/31 00:45:32;;;;;;;14.20;8.80;;;9.90;93.00;;;;;;5009257;28;20473;-71
2021/10/31 00:47:58;;;;;;;14.05;8.20;;;9.90;92.90;;;;;;5007727;28;20417;-70
2021/10/31 00:50:24;;;;;;;14.45;8.52;;;9.90;92.90;;;;;;5008455;28;20569;-71
2021/10/31 00:52:51;;;;;;;14.80;10.07;;;9.80;92.90;;;;;;5009218;28;20060;-70
2021/10/31 00:55:17;;;;;;;15.23;10.20;;;9.80;93.10;;;;;;5008346;28;20056;-70
2021/10/31 00:57:44;;;;;;;18.40;10.13;;;9.80;93.00;;;;;;5008711;28;20030;-77
2021/10/31 01:00:11;;;;;;;14.27;9.05;;;9.80;93.10;;;;;;5012259;28;20030;-73
2021/10/31 01:02:39;;;;;;;12.40;8.90;;;9.80;93.20;;;;;;5003408;28;20138;-70
2021/10/31 01:05:10;;;;;;;15.40;9.43;;;9.80;93.10;;;;;;5004911;28;20125;-70
2021/10/31 01:07:52;;;;;;;13.68;9.43;;;9.80;93.20;;;;;;5007521;28;20121;-70
2021/10/31 01:10:30;;;;;;;14.65;9.25;;;9.80;93.20;;;;;;5005850;28;20038;-76
2021/10/31 01:12:55;;;;;;;15.40;10.10;;;9.80;93.20;;;;;;5007502;28;20038;-71
2021/10/31 01:15:55;;;;;;;19.83;10.75;;;9.80;93.20;;;;;;5012574;28;20100;-71
2021/10/31 01:18:46;;;;;;;15.57;10.15;;;9.70;93.20;;;;;;5006221;28;20490;-71
2021/10/31 01:21:37;;;;;;;15.10;10.40;;;9.70;93.20;;;;;;5007761;28;20469;-71
2021/10/31 01:24:22;;;;;;;12.43;8.70;;;9.60;93.20;;;;;;5014545;28;20037;-70
2021/10/31 01:27:06;;;;;;;15.02;8.98;;;9.60;93.10;;;;;;5009767;28;20476;-72
2021/10/31 01:29:32;;;;;;;14.68;9.35;;;9.60;93.20;;;;;;5011751;28;20044;-70
2021/10/31 01:32:22;;;;;;;11.48;8.50;;;9.60;93.20;;;;;;5013457;28;20412;-71
2021/10/31 01:35:01;;;;;;;12.32;9.50;;;9.60;93.30;;;;;;5018078;28;20401;-71
2021/10/31 01:37:56;;;;;;;14.18;9.57;;;9.60;93.40;;;;;;5015424;28;20049;-70
2021/10/31 01:40:45;;;;;;;13.90;9.50;;;9.60;93.40;;;;;;5002048;28;20057;-70
2021/10/31 01:43:20;;;;;;;13.32;9.15;;;9.60;93.50;;;;;;5005992;28;20100;-70
2021/10/31 01:46:00;;;;;;;12.93;9.35;;;9.60;93.40;;;;;;5007945;28;20062;-70
2021/10/31 01:48:46;;;;;;;14.90;9.43;;;9.60;93.50;;;;;;5004818;28;20046;-73
2021/10/31 01:51:23;;;;;;;14.98;9.20;;;9.60;93.60;;;;;;5013291;28;20040;-70
2021/10/31 01:54:00;;;;;;;12.68;8.57;;;9.60;93.60;;;;;;5007787;28;20038;-72
2021/10/31 01:56:28;;;;;;;13.75;9.48;;;9.60;93.60;;;;;;5017425;28;20088;-70
2021/10/31 01:59:02;;;;;;;13.32;9.30;;;9.60;93.60;;;;;;5006576;28;21245;-70
2021/10/31 02:01:31;;;;;;;12.65;9.10;;;9.60;93.60;;;;;;5000958;28;20548;-70
2021/10/31 02:04:02;;;;;;;11.70;9.00;;;9.60;93.60;;;;;;5004889;28;20041;-70
2021/10/31 02:06:30;;;;;;;13.95;9.15;;;9.60;93.60;;;;;;5002801;28;20048;-70
2021/10/31 02:08:56;;;;;;;13.43;8.93;;;9.60;93.60;;;;;;5005022;28;20026;-73
2021/10/31 02:11:22;;;;;;;19.48;8.93;;;9.60;93.60;;;;;;5006589;28;20054;-70
2021/10/31 02:13:52;;;;;;;13.00;8.52;;;9.60;93.70;;;;;;5005842;28;20125;-70
2021/10/31 02:16:18;;;;;;;12.07;8.00;;;9.60;93.70;;;;;;5004883;28;20378;-71
2021/10/31 02:18:46;;;;;;;15.38;8.45;;;9.60;93.70;;;;;;5006059;28;20049;-72
2021/10/31 02:21:19;;;;;;;11.35;8.48;;;9.60;93.70;;;;;;4999065;28;20480;-70
2021/10/31 02:23:45;;;;;;;11.98;8.27;;;9.60;93.70;;;;;;5021866;28;20397;-71
2021/10/31 02:26:13;;;;;;;12.35;7.90;;;9.60;93.60;;;;;;5006721;28;20041;-72
2021/10/31 02:28:39;;;;;;;12.25;8.00;;;9.60;93.70;;;;;;5012627;28;20079;-70
2021/10/31 02:31:05;;;;;;;11.75;7.95;;;9.60;93.70;;;;;;5009209;28;20045;-73
2021/10/31 02:33:31;;;;;;;12.63;8.80;;;9.60;93.70;;;;;;5008515;28;20507;-70
2021/10/31 02:35:58;;;;;;;12.13;9.23;;;9.60;93.70;;;;;;5010218;28;20037;-70
2021/10/31 02:38:24;;;;;;;13.85;9.23;;;9.60;93.70;;;;;;5009775;28;20054;-70
2021/10/31 02:40:50;;;;;;;13.00;9.48;;;9.60;93.60;;;;;;5007157;28;20072;-74
2021/10/31 02:43:16;;;;;;;14.95;9.18;;;9.60;93.70;;;;;;5009031;28;20045;-77
2021/10/31 02:45:41;;;;;;;13.38;9.60;;;9.60;93.60;;;;;;5010237;28;20038;-71
2021/10/31 02:48:11;;;;;;;13.30;9.38;;;9.60;93.60;;;;;;5009333;28;20030;-70
2021/10/31 02:50:44;;;;;;;14.00;9.48;;;9.60;93.60;;;;;;5006482;28;20034;-70
2021/10/31 02:53:22;;;;;;;15.32;10.27;;;9.60;93.50;;;;;;5010012;28;20029;-70
2021/10/31 02:55:59;;;;;;;13.55;10.18;;;9.60;93.50;;;;;;5024179;28;20041;-70
2021/10/31 02:58:54;;;;;;;14.40;10.80;;;9.60;93.60;;;;;;5013422;28;20034;-74
2021/10/31 03:01:20;;;;;;;14.00;10.52;;;9.60;93.60;;;;;;5007957;28;20041;-70
2021/10/31 03:03:48;;;;;;;14.57;10.60;;;9.60;93.40;;;;;;5009361;28;20034;-71
2021/10/31 03:06:19;;;;;;;16.00;12.15;;;9.60;93.40;;;;;;5007102;28;20049;-70
2021/10/31 03:08:45;;;;;;;20.40;14.27;;;9.70;93.50;;;;;;5009740;28;20033;-70
2021/10/31 03:11:11;;;;;;;23.90;16.83;;;9.70;93.60;;;;;;5010738;28;20041;-70
2021/10/31 03:13:37;;;;;;;17.73;14.45;;;9.80;93.70;;;;;;5009104;28;20045;-70
2021/10/31 03:16:04;;;;;;;20.30;15.65;;;9.80;93.70;;;;;;5009990;28;20097;-70
2021/10/31 03:18:30;;;;;;;23.83;16.67;;;9.80;93.70;;;;;;5009414;28;20053;-70
2021/10/31 03:20:56;;;;;;;23.65;16.73;;;9.80;93.70;;;;;;5025423;28;20026;-70
2021/10/31 03:23:21;;;;;;;23.23;18.17;;;9.80;93.80;;;;;;5010269;28;20120;-75
2021/10/31 03:25:47;;;;;;;25.45;18.92;;;9.80;93.80;;;;;;5009066;28;20572;-71
2021/10/31 03:28:13;;;;;;;28.65;19.48;;;9.90;93.90;;;;;;5009476;28;20049;-70
2021/10/31 03:30:39;;;;;;;29.17;20.10;;;9.90;93.90;;;;;;5007729;28;20081;-70
2021/10/31 03:33:05;;;;;;;25.45;19.40;;;10.00;94.00;;;;;;5009140;28;20121;-70
2021/10/31 03:35:30;;;;;;;28.65;19.48;;;10.00;94.00;;;;;;5009262;28;20053;-70
2021/10/31 03:37:56;;;;;;;24.85;18.98;;;10.00;94.00;;;;;;5008648;28;20378;-70
2021/10/31 03:40:22;;;;;;;30.90;21.42;;;10.00;94.00;;;;;;5006696;28;20034;-70
2021/10/31 03:42:48;;;;;;;27.73;21.75;;;10.10;94.10;;;;;;5008536;28;20275;-71
2021/10/31 03:45:14;;;;;;;31.02;22.73;;;10.10;94.00;;;;;;5010256;28;20134;-70
2021/10/31 03:47:48;;;;;;;28.80;21.25;;;10.10;94.10;;;;;;5008420;28;20442;-73
2021/10/31 03:50:18;;;;;;;30.95;22.42;;;10.10;94.10;;;;;;5012069;28;20048;-71
2021/10/31 03:52:45;;;;;;;27.85;21.35;;;10.10;94.20;;;;;;5007406;28;20026;-70
2021/10/31 03:55:12;;;;;;;28.92;20.88;;;10.10;94.20;;;;;;5008986;28;20112;-70
2021/10/31 03:57:38;;;;;;;29.65;21.38;;;10.10;94.20;;;;;;5009706;28;20192;-70
2021/10/31 04:00:09;;;;;;;30.08;22.00;;;10.10;94.20;;;;;;5006459;28;20049;-70
2021/10/31 04:02:36;;;;;;;33.53;24.20;;;10.10;94.30;;;;;;5006104;28;20486;-72
2021/10/31 04:05:02;;;;;;;34.22;24.05;;;10.10;94.40;;;;;;5005053;28;20133;-72
2021/10/31 04:07:28;;;;;;;34.33;25.05;;;10.10;94.40;;;;;;5007402;28;20037;-70
2021/10/31 04:09:53;;;;;;;30.25;23.33;;;10.10;94.50;;;;;;5007357;28;20038;-70
2021/10/31 04:12:19;;;;;;;33.50;24.42;;;10.20;94.50;;;;;;5006001;28;20084;-74
2021/10/31 04:14:45;;;;;;;33.65;24.60;;;10.10;94.50;;;;;;5005112;28;20045;-70
2021/10/31 04:17:10;;;;;;;36.55;26.08;;;10.10;94.50;;;;;;5024551;28;20038;-71
2021/10/31 04:19:36;;;;;;;37.40;27.25;;;10.20;94.50;;;;;;5007239;28;20052;-70
2021/10/31 04:22:02;;;;;;;35.80;26.73;;;10.20;94.60;;;;;;5007169;28;20394;-70
2021/10/31 04:24:28;;;;;;;33.22;25.05;;;10.30;94.60;;;;;;5007805;28;20046;-70
2021/10/31 04:26:54;;;;;;;40.65;26.90;;;10.30;94.50;;;;;;5010086;28;20120;-70
2021/10/31 04:29:20;;;;;;;35.45;26.33;;;10.30;94.60;;;;;;5005226;28;20485;-70
2021/10/31 04:31:46;;;;;;;37.25;26.20;;;10.30;94.50;;;;;;5007993;28;20103;-71
2021/10/31 04:34:11;;;;;;;36.40;25.45;;;10.40;94.50;;;;;;5008475;28;20443;-71
2021/10/31 04:36:37;;;;;;;38.28;26.25;;;10.40;94.50;;;;;;5008313;28;20033;-70
2021/10/31 04:39:06;;;;;;;35.97;24.58;;;10.40;94.50;;;;;;5006125;28;20437;-73
2021/10/31 04:41:31;;;;;;;36.92;27.52;;;10.40;94.50;;;;;;5004942;28;20461;-71
2021/10/31 04:43:57;;;;;;;33.63;24.50;;;10.40;94.50;;;;;;5007417;28;20040;-71
2021/10/31 04:46:23;;;;;;;32.60;24.02;;;10.40;94.40;;;;;;5005733;28;20060;-71
2021/10/31 04:48:48;;;;;;;36.03;26.20;;;10.40;94.40;;;;;;5008365;28;20049;-70
2021/10/31 04:51:14;;;;;;;33.33;26.23;;;10.40;94.50;;;;;;5006652;28;20429;-75
2021/10/31 04:53:40;;;;;;;35.47;26.20;;;10.40;94.50;;;;;;5006382;28;20401;-71
2021/10/31 04:56:06;;;;;;;35.35;25.75;;;10.50;94.50;;;;;;5005961;28;20034;-70
2021/10/31 04:58:32;;;;;;;41.00;27.95;;;10.50;94.40;;;;;;5020449;28;20436;-70
2021/10/31 05:00:58;;;;;;;41.53;28.63;;;10.50;94.30;;;;;;5003768;28;20038;-71
2021/10/31 05:03:24;;;;;;;39.35;28.05;;;10.50;94.40;;;;;;5004854;28;20072;-70
2021/10/31 05:05:50;;;;;;;38.30;27.92;;;10.50;94.40;;;;;;5007145;28;20485;-73
2021/10/31 05:08:15;;;;;;;38.17;27.17;;;10.50;94.30;;;;;;5007155;28;20038;-70
2021/10/31 05:10:41;;;;;;;39.10;28.42;;;10.60;94.30;;;;;;5011137;28;20038;-70
2021/10/31 05:13:07;;;;;;;38.67;27.85;;;10.50;94.20;;;;;;5005305;28;20037;-72
2021/10/31 05:15:33;;;;;;;39.08;28.90;;;10.50;94.20;;;;;;5009950;28;20038;-71
2021/10/31 05:17:58;;;;;;;39.83;27.90;;;10.50;94.20;;;;;;5009114;28;20440;-71
2021/10/31 05:20:24;;;;;;;40.60;28.35;;;10.50;94.30;;;;;;5004526;28;20061;-70
2021/10/31 05:22:50;;;;;;;41.08;28.15;;;10.50;94.30;;;;;;5007836;28;20088;-74
2021/10/31 05:25:16;;;;;;;40.17;28.65;;;10.50;94.30;;;;;;5006054;28;20113;-70
2021/10/31 05:27:41;;;;;;;40.08;28.83;;;10.50;94.20;;;;;;5010048;28;20042;-72
2021/10/31 05:30:10;;;;;;;40.67;29.15;;;10.50;94.20;;;;;;5019034;28;20030;-70
2021/10/31 05:32:37;;;;;;;39.88;29.25;;;10.50;94.20;;;;;;5009399;28;20029;-70
2021/10/31 05:35:05;;;;;;;44.47;30.88;;;10.40;94.30;;;;;;5003092;28;20474;-73
2021/10/31 05:37:35;;;;;;;41.85;29.45;;;10.50;94.30;;;;;;5008085;28;20029;-69
2021/10/31 05:40:05;;;;;;;40.63;28.92;;;10.50;94.30;;;;;;5004643;28;20117;-70
2021/10/31 05:42:32;;;;;;;40.53;28.73;;;10.50;94.30;;;;;;5004479;28;20064;-69
2021/10/31 05:44:57;;;;;;;45.55;30.33;;;10.50;94.30;;;;;;5006069;28;20126;-70
2021/10/31 05:47:25;;;;;;;38.78;27.08;;;10.50;94.40;;;;;;5008425;28;20045;-70
2021/10/31 05:49:51;;;;;;;42.45;29.52;;;10.50;94.40;;;;;;5007080;28;20106;-70
2021/10/31 05:52:17;;;;;;;39.00;28.80;;;10.50;94.50;;;;;;5003453;28;20065;-70
2021/10/31 05:54:43;;;;;;;42.63;28.92;;;10.60;94.40;;;;;;5014158;28;20069;-72
2021/10/31 05:57:08;;;;;;;42.80;29.42;;;10.60;94.40;;;;;;5004650;28;20034;-70
2021/10/31 05:59:34;;;;;;;42.25;29.40;;;10.60;94.30;;;;;;5005618;28;20069;-78
2021/10/31 06:02:00;;;;;;;42.22;29.65;;;10.60;94.30;;;;;;5011222;28;20084;-71
2021/10/31 06:04:27;;;;;;;41.20;28.30;;;10.60;94.30;;;;;;5009111;28;20046;-72
2021/10/31 06:06:53;;;;;;;40.33;28.73;;;10.70;94.30;;;;;;5010768;28;20532;-70
2021/10/31 06:09:19;;;;;;;40.15;28.52;;;10.70;94.30;;;;;;5009510;28;20042;-74
2021/10/31 06:11:44;;;;;;;42.67;28.70;;;10.80;94.20;;;;;;5012978;28;20496;-70
2021/10/31 06:14:13;;;;;;;36.10;26.58;;;10.80;94.30;;;;;;5012043;28;20050;-71
2021/10/31 06:16:40;;;;;;;38.95;27.67;;;10.80;94.20;;;;;;5015539;28;20052;-69
2021/10/31 06:19:06;;;;;;;38.55;27.45;;;10.80;94.10;;;;;;5025085;28;20129;-72
2021/10/31 06:21:32;;;;;;;33.10;24.67;;;10.80;93.90;;;;;;5009950;28;20117;-71
2021/10/31 06:23:57;;;;;;;33.00;24.35;;;10.80;93.90;;;;;;5011503;28;20065;-70
2021/10/31 06:26:23;;;;;;;35.38;24.15;;;10.90;93.80;;;;;;5011046;28;20038;-70
2021/10/31 06:28:49;;;;;;;31.75;23.15;;;10.90;93.80;;;;;;5015135;28;20121;-71
2021/10/31 06:31:15;;;;;;;28.15;22.17;;;10.90;93.70;;;;;;5008765;28;20034;-70
2021/10/31 06:33:41;;;;;;;29.52;21.67;;;10.80;93.70;;;;;;5007130;28;20077;-72
2021/10/31 06:36:06;;;;;;;32.13;22.08;;;10.90;93.70;;;;;;5006158;28;20046;-70
2021/10/31 06:38:32;;;;;;;31.80;21.63;;;10.80;93.70;;;;;;5010998;28;20045;-70
2021/10/31 06:40:58;;;;;;;27.40;20.23;;;10.80;93.70;;;;;;5010627;28;20121;-69
2021/10/31 06:43:24;;;;;;;29.30;22.95;;;10.90;93.70;;;;;;5006068;28;20115;-71
2021/10/31 06:45:50;;;;;;;24.65;19.45;;;10.80;93.60;;;;;;5008285;28;20050;-70
2021/10/31 06:48:16;;;;;;;24.00;19.13;;;10.80;93.60;;;;;;5010195;28;20421;-71
2021/10/31 06:50:41;;;;;;;24.52;19.13;;;10.80;93.60;;;;;;5010350;28;20137;-70
2021/10/31 06:53:07;;;;;;;24.58;19.83;;;10.80;93.60;;;;;;5008687;28;20069;-70
2021/10/31 06:55:34;;;;;;;24.85;20.55;;;10.70;93.60;;;;;;5010657;28;20034;-71
2021/10/31 06:58:00;;;;;;;26.00;22.25;;;10.70;93.70;;;;;;5009357;28;20092;-70
2021/10/31 07:00:26;;;;;;;23.27;18.90;;;10.80;93.70;;;;;;5007420;28;20034;-75
2021/10/31 07:02:52;;;;;;;24.38;18.73;;;10.80;93.80;;;;;;5010982;28;20046;-69
2021/10/31 07:05:18;;;;;;;24.38;18.40;;;10.90;93.80;;;;;;5006903;28;20425;-72
2021/10/31 07:07:44;;;;;;;20.80;17.25;;;10.90;93.60;;;;;;5023226;28;20059;-70
2021/10/31 07:10:13;;;;;;;24.83;18.35;;;10.90;93.50;;;;;;5009942;28;20030;-69
2021/10/31 07:12:39;;;;;;;22.80;17.48;;;10.90;93.50;;;;;;5008223;28;20482;-71
2021/10/31 07:15:06;;;;;;;21.08;18.05;;;11.00;93.50;;;;;;5006110;28;20072;-70
2021/10/31 07:17:31;;;;;;;18.58;15.82;;;10.90;93.40;;;;;;5007066;28;20087;-72
2021/10/31 07:19:57;;;;;;;18.10;16.00;;;10.90;93.30;;;;;;5009883;28;20485;-72
2021/10/31 07:22:23;;;;;;;19.90;16.23;;;11.00;93.20;;;;;;5007736;28;20034;-71
2021/10/31 07:24:51;;;;;;;17.92;16.02;;;10.90;93.00;;;;;;5009475;28;20088;-70
2021/10/31 07:27:16;;;;;;;16.83;14.82;;;11.00;93.00;;;;;;5007060;28;20034;-75
2021/10/31 07:29:42;;;;;;;19.30;15.35;;;10.90;93.00;;;;;;5010857;28;20038;-70
2021/10/31 07:32:08;;;;;;;19.35;14.98;;;11.00;92.90;;;;;;5008712;28;20026;-70
2021/10/31 07:34:34;;;;;;;19.70;14.80;;;10.90;92.90;;;;;;5008889;28;20037;-71
2021/10/31 07:37:00;;;;;;;19.50;14.77;;;11.00;92.80;;;;;;5009678;28;20121;-68
2021/10/31 07:39:29;;;;;;;18.35;14.77;;;11.00;92.80;;;;;;5007632;28;20233;-68
2021/10/31 07:41:55;;;;;;;17.92;13.93;;;11.00;92.60;;;;;;5006653;28;20405;-70
2021/10/31 07:44:20;;;;;;;19.08;14.30;;;11.00;92.60;;;;;;5022077;28;20058;-68
2021/10/31 07:46:46;;;;;;;15.30;13.40;;;11.10;92.40;;;;;;5009736;28;20042;-70
2021/10/31 07:49:12;;;;;;;17.98;13.88;;;11.10;92.30;;;;;;5011798;28;20037;-68
2021/10/31 07:51:37;;;;;;;16.92;12.63;;;11.20;92.10;;;;;;5007832;28;20033;-68
2021/10/31 07:54:03;;;;;;;15.98;11.82;;;11.20;91.90;;;;;;5007437;28;20045;-69
2021/10/31 07:56:33;;;;;;;14.90;11.02;;;11.30;91.40;;;;;;5009782;28;20392;-68
2021/10/31 07:58:59;;;;;;;14.18;10.60;;;11.30;91.00;;;;;;5006302;28;20397;-69
2021/10/31 08:01:24;;;;;;;13.60;10.50;;;11.30;90.80;;;;;;5007510;28;20042;-69
2021/10/31 08:03:52;;;;;;;13.07;9.65;;;11.40;90.80;;;;;;5008202;28;20117;-69
2021/10/31 08:06:19;;;;;;;12.80;9.27;;;11.40;90.50;;;;;;5004541;28;20065;-69
2021/10/31 08:08:45;;;;;;;11.93;8.13;;;11.50;90.30;;;;;;5007444;28;20513;-68
2021/10/31 08:11:10;;;;;;;11.90;8.38;;;11.50;90.20;;;;;;5003941;28;20061;-68
2021/10/31 08:13:38;;;;;;;11.73;8.07;;;11.60;90.00;;;;;;5006869;28;20033;-68
2021/10/31 08:16:03;;;;;;;12.35;7.93;;;11.60;89.80;;;;;;5003333;28;20477;-68
2021/10/31 08:18:30;;;;;;;9.77;7.53;;;11.60;89.60;;;;;;5006414;28;20219;-69
2021/10/31 08:20:56;;;;;;;9.10;6.93;;;11.70;89.30;;;;;;5004190;28;20044;-69
2021/10/31 08:23:22;;;;;;;11.70;7.03;;;11.80;88.90;;;;;;5018311;28;20413;-70
2021/10/31 08:25:49;;;;;;;10.40;7.18;;;11.90;88.90;;;;;;5006900;28;20038;-67
2021/10/31 08:28:16;;;;;;;12.43;6.72;;;12.00;88.60;;;;;;5005001;28;21344;-77
2021/10/31 08:30:55;;;;;;;12.63;7.70;;;12.10;87.90;;;;;;5004272;28;20386;-71
2021/10/31 08:33:44;;;;;;;11.23;6.78;;;12.10;87.80;;;;;;5005839;28;20029;-70
2021/10/31 08:36:10;;;;;;;11.70;7.38;;;12.10;87.70;;;;;;5004912;28;20042;-69
2021/10/31 08:38:36;;;;;;;9.18;6.65;;;12.20;87.50;;;;;;5007029;28;20069;-71
2021/10/31 08:41:01;;;;;;;11.88;7.25;;;12.30;87.40;;;;;;5010715;28;20478;-72
2021/10/31 08:43:27;;;;;;;14.80;6.70;;;12.30;87.20;;;;;;5008551;28;20119;-70
2021/10/31 08:45:53;;;;;;;9.88;7.05;;;12.20;87.30;;;;;;5005810;28;20118;-71
2021/10/31 08:48:19;;;;;;;9.60;6.43;;;12.20;87.20;;;;;;5006008;28;20049;-71
2021/10/31 08:50:45;;;;;;;10.30;7.03;;;12.20;87.10;;;;;;5005569;28;20049;-70
2021/10/31 08:53:12;;;;;;;11.95;6.68;;;12.20;87.30;;;;;;5005669;28;20030;-69
2021/10/31 08:55:40;;;;;;;9.65;5.32;;;12.20;87.40;;;;;;5006549;28;20034;-75
2021/10/31 08:58:08;;;;;;;9.55;6.05;;;12.20;87.20;;;;;;5006246;28;20052;-74
2021/10/31 09:00:34;;;;;;;9.32;5.70;;;12.20;87.30;;;;;;5005193;28;20061;-68
2021/10/31 09:03:00;;;;;;;9.00;5.90;;;12.30;87.40;;;;;;5006196;28;20049;-72
2021/10/31 09:05:27;;;;;;;8.85;5.63;;;12.30;87.50;;;;;;5006066;28;20053;-71
2021/10/31 09:07:53;;;;;;;9.23;5.57;;;12.40;87.60;;;;;;5007366;28;20030;-69
2021/10/31 09:10:19;;;;;;;11.07;6.18;;;12.30;87.80;;;;;;5007483;28;20049;-69
2021/10/31 09:12:45;;;;;;;11.73;6.63;;;12.40;87.60;;;;;;5006738;28;20121;-74
2021/10/31 09:15:11;;;;;;;9.27;5.32;;;12.50;87.40;;;;;;5002137;28;20385;-69
2021/10/31 09:17:37;;;;;;;8.70;5.40;;;12.50;87.10;;;;;;4996245;28;20038;-70
2021/10/31 09:20:04;;;;;;;10.48;5.57;;;12.50;87.20;;;;;;4992692;28;20056;-76
2021/10/31 09:22:31;;;;;;;8.30;5.20;;;12.60;87.10;;;;;;4986200;28;20218;-70
2021/10/31 09:24:57;;;;;;;9.00;5.20;;;12.60;87.30;;;;;;4988883;28;20083;-75
2021/10/31 09:27:22;;;;;;;9.65;5.35;;;12.60;87.00;;;;;;4986130;28;20041;-73
2021/10/31 09:29:48;;;;;;;7.85;4.80;;;12.70;87.20;;;;;;5003828;28;20042;-74
2021/10/31 09:32:14;;;;;;;8.70;5.00;;;12.70;87.10;;;;;;4990075;28;20215;-74
2021/10/31 09:34:39;;;;;;;8.40;4.63;;;12.80;86.90;;;;;;4989338;28;20042;-72
2021/10/31 09:37:05;;;;;;;8.27;4.80;;;12.80;87.00;;;;;;4986419;28;20498;-70
2021/10/31 09:39:31;;;;;;;8.02;4.38;;;12.80;86.50;;;;;;4988850;28;20044;-71
2021/10/31 09:41:57;;;;;;;8.50;4.75;;;12.80;86.60;;;;;;4994139;28;20647;-72
2021/10/31 09:44:28;;;;;;;7.55;4.18;;;12.90;86.60;;;;;;4993816;28;20057;-74
2021/10/31 09:46:54;;;;;;;8.85;3.90;;;12.90;86.30;;;;;;4987232;28;20546;-72
2021/10/31 09:49:20;;;;;;;7.45;4.43;;;13.00;86.50;;;;;;4992261;28;20080;-71
2021/10/31 09:51:50;;;;;;;7.93;3.78;;;13.00;86.30;;;;;;4995284;28;20034;-75
2021/10/31 09:54:16;;;;;;;8.98;3.58;;;13.10;85.70;;;;;;4997354;28;20041;-71
2021/10/31 09:56:43;;;;;;;7.43;3.17;;;13.10;85.40;;;;;;4993145;28;20042;-71
2021/10/31 09:59:14;;;;;;;6.75;3.70;;;13.10;85.20;;;;;;4996426;28;20044;-70
2021/10/31 10:01:58;;;;;;;8.73;3.58;;;13.20;85.40;;;;;;5005269;28;20037;-71
2021/10/31 10:04:37;;;;;;;7.78;3.30;;;13.20;85.40;;;;;;5005477;28;20107;-71
2021/10/31 10:07:05;;;;;;;7.07;3.05;;;13.10;85.40;;;;;;5001945;28;20042;-73
2021/10/31 10:09:32;;;;;;;5.93;3.15;;;13.10;85.20;;;;;;5004705;28;20026;-70
2021/10/31 10:12:12;;;;;;;7.60;3.30;;;13.10;85.30;;;;;;5007505;28;20165;-71
2021/10/31 10:14:38;;;;;;;8.50;2.75;;;13.10;85.20;;;;;;5018519;28;20436;-72
2021/10/31 10:17:07;;;;;;;6.05;2.60;;;13.20;85.00;;;;;;5007346;28;20056;-71
2021/10/31 10:19:49;;;;;;;6.50;2.90;;;13.20;85.00;;;;;;5009719;28;20121;-71
2021/10/31 10:22:19;;;;;;;7.13;2.72;;;13.20;85.10;;;;;;5007271;28;20501;-70
2021/10/31 10:24:54;;;;;;;6.80;2.80;;;13.20;85.00;;;;;;5007031;28;20485;-71
2021/10/31 10:27:24;;;;;;;4.93;2.13;;;13.30;85.00;;;;;;5005945;28;20038;-72
2021/10/31 10:29:51;;;;;;;5.15;2.53;;;13.20;85.10;;;;;;5009200;28;20041;-70
2021/10/31 10:32:23;;;;;;;5.88;2.25;;;13.20;85.30;;;;;;5004404;28;20116;-71
2021/10/31 10:34:52;;;;;;;6.55;3.13;;;13.20;85.50;;;;;;5008653;28;20043;-70
2021/10/31 10:37:22;;;;;;;6.85;2.85;;;13.20;85.70;;;;;;5002180;28;20065;-70
2021/10/31 10:40:04;;;;;;;6.75;2.58;;;13.30;85.90;;;;;;5005559;28;20389;-70
2021/10/31 10:42:38;;;;;;;5.30;2.58;;;13.30;86.00;;;;;;5005101;28;20039;-71
2021/10/31 10:45:09;;;;;;;6.13;2.25;;;13.30;86.20;;;;;;4999835;28;20492;-71
2021/10/31 10:47:48;;;;;;;4.95;2.40;;;13.30;86.30;;;;;;5028925;28;20103;-70
2021/10/31 10:50:16;;;;;;;8.65;2.65;;;13.30;86.40;;;;;;5008596;28;20124;-70
2021/10/31 10:52:43;;;;;;;6.03;2.55;;;13.30;85.90;;;;;;5010265;28;20040;-71
2021/10/31 10:55:13;;;;;;;6.57;2.55;;;13.40;85.90;;;;;;5010577;28;20385;-71
2021/10/31 10:57:52;;;;;;;6.20;2.35;;;13.40;85.50;;;;;;5015769;28;20034;-73
2021/10/31 11:00:27;;;;;;;6.78;2.40;;;13.40;85.70;;;;;;5007444;28;20048;-71
2021/10/31 11:03:05;;;;;;;5.30;2.30;;;13.50;85.40;;;;;;5026361;28;20042;-70
2021/10/31 11:05:37;;;;;;;6.25;2.80;;;13.60;85.50;;;;;;5016597;28;20050;-75
2021/10/31 11:08:12;;;;;;;4.93;2.00;;;13.60;85.00;;;;;;5009737;28;20038;-70
2021/10/31 11:10:57;;;;;;;5.30;2.30;;;13.80;84.70;;;;;;5005737;28;20191;-71
2021/10/31 11:13:25;;;;;;;8.15;2.97;;;13.90;84.20;;;;;;5003692;28;20114;-77
2021/10/31 11:15:53;;;;;;;5.40;2.45;;;14.00;83.70;;;;;;5000208;28;20038;-70
2021/10/31 11:18:18;;;;;;;6.55;2.53;;;14.10;83.70;;;;;;5008171;28;20077;-70
2021/10/31 11:20:46;;;;;;;11.32;2.65;;;14.10;83.90;;;;;;5020920;28;20041;-70
2021/10/31 11:23:15;;;;;;;5.68;2.50;;;14.10;83.90;;;;;;5014217;28;20041;-72
2021/10/31 11:25:43;;;;;;;4.82;2.60;;;14.10;83.90;;;;;;5004780;28;20100;-70
2021/10/31 11:28:12;;;;;;;8.85;3.20;;;14.20;83.50;;;;;;5022466;28;20042;-78
2021/10/31 11:30:39;;;;;;;4.43;2.08;;;14.30;83.30;;;;;;5005975;28;20061;-70
2021/10/31 11:33:07;;;;;;;5.82;2.80;;;14.40;82.90;;;;;;5008745;28;20577;-70
2021/10/31 11:35:33;;;;;;;6.05;2.60;;;14.40;83.00;;;;;;5005323;28;20046;-73
2021/10/31 11:38:02;;;;;;;4.85;2.40;;;14.40;82.90;;;;;;5003554;28;20072;-71
2021/10/31 11:41:02;;;;;;;4.72;1.98;;;14.40;82.80;;;;;;5019827;28;20034;-70
2021/10/31 11:43:30;;;;;;;6.47;2.85;;;14.40;82.50;;;;;;4997816;28;20045;-70
2021/10/31 11:45:58;;;;;;;5.70;2.30;;;14.40;82.70;;;;;;5005881;28;20069;-71
2021/10/31 11:48:25;;;;;;;4.85;2.25;;;14.40;82.70;;;;;;5019514;28;20034;-71
2021/10/31 11:51:03;;;;;;;6.65;2.17;;;14.30;82.70;;;;;;5022685;28;20038;-72
2021/10/31 11:53:42;;;;;;;6.05;2.58;;;14.40;82.30;;;;;;5007121;28;20057;-69
2021/10/31 11:56:24;;;;;;;6.07;2.28;;;14.30;82.40;;;;;;5006595;28;20380;-70
2021/10/31 11:59:07;;;;;;;5.40;2.30;;;14.30;82.40;;;;;;5003333;28;20044;-69
2021/10/31 12:01:46;;;;;;;5.93;2.15;;;14.30;82.20;;;;;;5008158;28;20113;-72
2021/10/31 12:04:35;;;;;;;5.88;2.70;;;14.30;82.40;;;;;;5006282;28;20034;-71
2021/10/31 12:07:11;;;;;;;7.82;2.42;;;14.30;82.60;;;;;;5006773;28;20120;-75
2021/10/31 12:09:37;;;;;;;5.30;2.50;;;14.30;81.90;;;;;;5009253;28;20041;-76
2021/10/31 12:12:06;;;;;;;6.05;2.38;;;14.40;81.70;;;;;;5005078;28;20045;-73
2021/10/31 12:14:49;;;;;;;5.72;2.22;;;14.40;82.10;;;;;;5009100;28;20038;-73
2021/10/31 12:17:16;;;;;;;6.90;2.50;;;14.40;82.00;;;;;;5006155;28;20503;-70
2021/10/31 12:19:50;;;;;;;4.57;2.30;;;14.30;82.30;;;;;;5015009;28;20061;-70
2021/10/31 12:22:20;;;;;;;6.18;2.35;;;14.30;82.00;;;;;;5004410;28;20625;-70
2021/10/31 12:24:56;;;;;;;6.28;2.45;;;14.40;81.90;;;;;;5009817;28;20053;-73
2021/10/31 12:27:27;;;;;;;3.97;1.92;;;14.40;82.00;;;;;;5009768;28;20513;-70
2021/10/31 12:30:30;;;;;;;6.35;2.10;;;14.50;82.20;;;;;;5026525;28;20056;-70
2021/10/31 12:33:06;;;;;;;6.32;2.30;;;14.40;82.20;;;;;;5008320;28;20633;-73
2021/10/31 12:35:34;;;;;;;;;;;14.50;82.50;;;;;;5011549;28;20061;-71
2021/10/31 12:38:18;;;;;;;6.70;2.05;;;14.40;82.60;;;;;;5005328;28;19925;-73
2021/10/31 12:41:07;;;;;;;6.55;2.80;;;14.40;82.90;;;;;;5008455;28;20128;-70
2021/10/31 12:43:52;;;;;;;5.32;2.70;;;14.30;83.40;;;;;;5004451;28;20065;-70
2021/10/31 12:46:29;;;;;;;8.75;2.70;;;14.20;84.40;;;;;;5003762;28;20042;-70
2021/10/31 12:48:58;;;;;;;6.18;2.65;;;14.20;84.90;;;;;;5007498;28;20042;-71